createdAt,value
2023-04-02T00:02:31.745Z,11.39
2023-04-02T00:05:16.733Z,11.28
2023-04-02T00:07:53.300Z,11.26
2023-04-02T00:10:26.146Z,11.31
2023-04-02T00:13:19.025Z,11.24
2023-04-02T00:15:47.074Z,11.11
2023-04-02T00:18:16.822Z,11.04
2023-04-02T00:20:45.204Z,11.03
2023-04-02T00:23:12.492Z,10.84
2023-04-02T00:25:43.157Z,10.80
2023-04-02T00:28:17.130Z,10.80
2023-04-02T00:30:51.666Z,10.83
2023-04-02T00:33:28.097Z,10.94
2023-04-02T00:35:54.924Z,10.93
2023-04-02T00:38:26.182Z,10.91
2023-04-02T00:40:53.158Z,10.89
2023-04-02T00:43:23.058Z,10.91
2023-04-02T00:45:54.913Z,10.95
2023-04-02T00:48:31.799Z,10.97
2023-04-02T00:51:04.105Z,10.89
2023-04-02T00:53:30.942Z,10.83
2023-04-02T00:55:59.894Z,10.79
2023-04-02T00:58:36.807Z,10.79
2023-04-02T01:01:04.770Z,10.74
2023-04-02T01:03:34.895Z,10.82
2023-04-02T01:06:03.318Z,10.90
2023-04-02T01:08:39.501Z,10.89
2023-04-02T01:11:14.863Z,10.89
2023-04-02T01:13:50.813Z,10.88
2023-04-02T01:16:38.663Z,10.95
2023-04-02T01:19:13.729Z,10.83
2023-04-02T01:21:52.944Z,10.73
2023-04-02T01:24:19.917Z,10.67
2023-04-02T01:26:59.913Z,10.67
2023-04-02T01:29:27.922Z,10.69
2023-04-02T01:31:58.166Z,10.75
2023-04-02T01:34:28.370Z,10.80
2023-04-02T01:37:01.188Z,10.83
2023-04-02T01:39:34.760Z,10.90
2023-04-02T01:42:11.432Z,10.88
2023-04-02T01:44:47.756Z,10.70
2023-04-02T01:47:17.749Z,10.66
2023-04-02T01:49:44.951Z,10.67
2023-04-02T01:52:19.627Z,10.84
2023-04-02T01:54:48.722Z,10.85
2023-04-02T01:57:17.734Z,10.90
2023-04-02T01:59:45.060Z,10.87
2023-04-02T02:02:12.832Z,10.82
2023-04-02T02:04:43.604Z,10.76
2023-04-02T02:07:17.305Z,10.77
2023-04-02T02:09:48.144Z,10.82
2023-04-02T02:12:17.873Z,10.96
2023-04-02T02:14:52.562Z,11.06
2023-04-02T02:17:34.645Z,11.23
2023-04-02T02:20:01.614Z,11.36
2023-04-02T02:22:29.904Z,11.39
2023-04-02T02:24:57.866Z,11.47
2023-04-02T02:27:30.694Z,11.54
2023-04-02T02:30:07.613Z,11.50
2023-04-02T02:32:34.511Z,11.55
2023-04-02T02:35:16.081Z,11.63
2023-04-02T02:37:44.301Z,11.49
2023-04-02T02:40:23.318Z,11.42
2023-04-02T02:42:52.737Z,11.36
2023-04-02T02:45:20.845Z,11.32
2023-04-02T02:47:48.150Z,11.22
2023-04-02T02:50:22.400Z,11.09
2023-04-02T02:52:56.393Z,11.01
2023-04-02T02:55:24.878Z,10.96
2023-04-02T02:58:19.320Z,10.99
2023-04-02T03:01:06.554Z,11.10
2023-04-02T03:03:35.737Z,11.13
2023-04-02T03:06:06.362Z,11.11
2023-04-02T03:08:37.254Z,11.03
2023-04-02T03:11:07.225Z,10.97
2023-04-02T03:13:35.747Z,10.95
2023-04-02T03:16:29.376Z,10.99
2023-04-02T03:18:56.044Z,10.95
2023-04-02T03:21:42.180Z,11.00
2023-04-02T03:24:11.880Z,10.93
2023-04-02T03:26:49.075Z,10.98
2023-04-02T03:29:22.581Z,11.02
2023-04-02T03:31:58.203Z,10.94
2023-04-02T03:34:26.050Z,10.96
2023-04-02T03:37:14.652Z,10.90
2023-04-02T03:39:44.458Z,10.92
2023-04-02T03:42:19.680Z,10.96
2023-04-02T03:44:46.543Z,10.99
2023-04-02T03:47:24.550Z,10.92
2023-04-02T03:49:56.550Z,10.85
2023-04-02T03:52:26.679Z,10.90
2023-04-02T03:54:59.069Z,10.92
2023-04-02T03:57:36.041Z,10.92
2023-04-02T04:00:17.472Z,10.90
2023-04-02T04:02:57.509Z,10.92
2023-04-02T04:05:24.536Z,10.94
2023-04-02T04:07:55.146Z,11.02
2023-04-02T04:10:25.362Z,11.05
2023-04-02T04:12:53.017Z,11.03
2023-04-02T04:15:22.887Z,11.09
2023-04-02T04:17:54.126Z,11.18
2023-04-02T04:20:29.911Z,11.17
2023-04-02T04:22:59.391Z,11.20
2023-04-02T04:25:29.680Z,11.21
2023-04-02T04:28:16.700Z,11.19
2023-04-02T04:30:52.506Z,11.16
2023-04-02T04:33:23.314Z,11.13
2023-04-02T04:35:58.782Z,11.08
2023-04-02T04:38:34.364Z,11.10
2023-04-02T04:41:03.412Z,11.20
2023-04-02T04:43:47.898Z,11.16
2023-04-02T04:46:29.007Z,11.12
2023-04-02T04:48:59.618Z,11.06
2023-04-02T04:51:28.877Z,10.76
2023-04-02T04:53:59.946Z,10.62
2023-04-02T04:56:32.165Z,10.51
2023-04-02T04:59:28.215Z,10.58
2023-04-02T05:02:00.765Z,10.62
2023-04-02T05:04:40.130Z,10.62
2023-04-02T05:07:13.427Z,10.76
2023-04-02T05:09:44.500Z,10.81
2023-04-02T05:12:19.644Z,10.95
2023-04-02T05:14:46.811Z,10.95
2023-04-02T05:17:21.040Z,11.00
2023-04-02T05:19:57.099Z,11.08
2023-04-02T05:22:24.537Z,11.11
2023-04-02T05:24:53.094Z,11.34
2023-04-02T05:27:26.130Z,11.41
2023-04-02T05:29:59.668Z,11.41
2023-04-02T05:32:28.608Z,11.48
2023-04-02T05:34:57.899Z,11.64
2023-04-02T05:37:26.381Z,11.66
2023-04-02T05:39:56.691Z,11.59
2023-04-02T05:42:24.814Z,11.57
2023-04-02T05:45:25.960Z,11.54
2023-04-02T05:48:02.189Z,11.75
2023-04-02T05:50:42.797Z,11.90
2023-04-02T05:53:39.559Z,12.08
2023-04-02T05:56:10.727Z,12.20
2023-04-02T05:58:51.599Z,12.24
2023-04-02T06:08:11.913Z,12.69
2023-04-02T06:10:47.453Z,12.82
2023-04-02T06:16:24.562Z,12.94
2023-04-02T06:19:27.974Z,13.18
2023-04-02T06:22:17.336Z,12.94
2023-04-02T06:24:45.152Z,12.94
2023-04-02T06:27:23.946Z,12.95
2023-04-02T06:29:52.954Z,13.17
2023-04-02T06:32:20.525Z,13.23
2023-04-02T06:34:47.746Z,12.94
2023-04-02T06:37:22.823Z,12.81
2023-04-02T06:39:56.515Z,12.51
2023-04-02T06:42:25.560Z,12.47
2023-04-02T06:45:22.554Z,12.69
2023-04-02T06:48:06.413Z,12.83
2023-04-02T06:50:46.571Z,13.00
2023-04-02T06:53:19.382Z,13.30
2023-04-02T06:56:06.048Z,13.55
2023-04-02T06:58:34.650Z,13.70
2023-04-02T07:01:02.126Z,13.72
2023-04-02T07:03:55.348Z,13.96
2023-04-02T07:06:27.835Z,14.17
2023-04-02T07:08:58.259Z,14.25
2023-04-02T07:11:27.816Z,14.32
2023-04-02T07:13:57.924Z,14.45
2023-04-02T07:16:26.682Z,14.51
2023-04-02T07:18:58.732Z,14.67
2023-04-02T07:21:28.569Z,14.76
2023-04-02T07:23:58.225Z,14.74
2023-04-02T07:26:27.243Z,14.97
2023-04-02T07:28:54.740Z,15.11
2023-04-02T07:31:23.769Z,14.97
2023-04-02T07:33:50.878Z,14.75
2023-04-02T07:36:18.888Z,14.68
2023-04-02T07:38:45.558Z,14.73
2023-04-02T07:41:12.331Z,14.97
2023-04-02T07:43:41.424Z,14.99
2023-04-02T07:46:16.057Z,14.96
2023-04-02T07:48:43.769Z,14.81
2023-04-02T07:51:21.225Z,14.91
2023-04-02T07:53:59.465Z,14.93
2023-04-02T07:56:26.681Z,14.93
2023-04-02T07:58:53.624Z,14.74
2023-04-02T08:01:26.514Z,14.88
2023-04-02T08:03:56.956Z,15.05
2023-04-02T08:06:26.075Z,15.12
2023-04-02T08:08:52.934Z,15.21
2023-04-02T08:11:28.105Z,14.97
2023-04-02T08:14:07.369Z,15.16
2023-04-02T08:17:06.606Z,15.05
2023-04-02T08:19:41.567Z,14.56
2023-04-02T08:22:21.761Z,14.61
2023-04-02T08:24:50.910Z,14.82
2023-04-02T08:27:19.725Z,15.12
2023-04-02T08:29:46.519Z,15.51
2023-04-02T08:32:13.389Z,15.33
2023-04-02T08:34:40.082Z,15.32
2023-04-02T08:37:06.822Z,15.49
2023-04-02T08:39:38.352Z,15.86
2023-04-02T08:42:08.340Z,16.35
2023-04-02T08:44:54.261Z,16.31
2023-04-02T08:47:32.116Z,16.82
2023-04-02T08:50:02.544Z,17.05
2023-04-02T08:52:33.130Z,17.25
2023-04-02T08:55:03.960Z,17.37
2023-04-02T08:57:31.379Z,17.46
2023-04-02T09:00:22.048Z,17.50
2023-04-02T09:02:59.966Z,17.89
2023-04-02T09:05:28.513Z,18.11
2023-04-02T09:07:56.166Z,18.13
2023-04-02T09:10:23.091Z,18.07
2023-04-02T09:12:52.884Z,18.01
2023-04-02T09:15:26.702Z,17.38
2023-04-02T09:17:59.625Z,17.37
2023-04-02T09:20:38.033Z,17.39
2023-04-02T09:23:05.189Z,17.40
2023-04-02T09:25:32.529Z,17.24
2023-04-02T09:28:08.517Z,17.29
2023-04-02T09:30:41.059Z,17.29
2023-04-02T09:33:11.639Z,17.18
2023-04-02T09:35:53.966Z,17.51
2023-04-02T09:38:26.801Z,17.70
2023-04-02T09:41:04.359Z,17.77
2023-04-02T09:43:38.173Z,17.80
2023-04-02T09:46:24.097Z,17.66
2023-04-02T09:48:58.550Z,17.45
2023-04-02T09:51:29.500Z,17.26
2023-04-02T09:54:02.805Z,17.26
2023-04-02T09:56:30.222Z,17.39
2023-04-02T09:59:03.388Z,17.59
2023-04-02T10:01:36.748Z,17.29
2023-04-02T10:04:04.170Z,17.20
2023-04-02T10:06:36.309Z,17.32
2023-04-02T10:09:35.503Z,17.59
2023-04-02T10:12:02.879Z,17.59
2023-04-02T10:14:39.284Z,17.26
2023-04-02T10:17:13.587Z,16.94
2023-04-02T10:19:43.674Z,17.27
2023-04-02T10:22:12.842Z,17.26
2023-04-02T10:24:43.122Z,17.61
2023-04-02T10:27:35.791Z,17.71
2023-04-02T10:30:30.211Z,17.63
2023-04-02T10:33:09.558Z,17.30
2023-04-02T10:35:53.875Z,17.25
2023-04-02T10:38:36.437Z,17.63
2023-04-02T10:41:18.695Z,18.15
2023-04-02T10:43:53.858Z,17.97
2023-04-02T10:46:25.300Z,17.99
2023-04-02T10:49:19.414Z,17.72
2023-04-02T10:51:47.190Z,18.08
2023-04-02T10:54:38.839Z,17.95
2023-04-02T10:57:10.748Z,17.63
2023-04-02T10:59:41.257Z,17.61
2023-04-02T11:02:39.781Z,18.19
2023-04-02T11:05:24.717Z,18.55
2023-04-02T11:08:47.874Z,18.29
2023-04-02T11:11:46.706Z,18.74
2023-04-02T11:14:32.537Z,18.89
2023-04-02T11:17:23.229Z,19.13
2023-04-02T11:20:02.380Z,18.77
2023-04-02T11:22:29.308Z,18.96
2023-04-02T11:24:59.458Z,18.80
2023-04-02T11:27:29.691Z,18.51
2023-04-02T11:30:18.282Z,18.57
2023-04-02T11:32:47.355Z,18.76
2023-04-02T11:35:26.261Z,19.00
2023-04-02T11:37:55.562Z,19.27
2023-04-02T11:40:45.357Z,19.07
2023-04-02T11:43:30.686Z,19.62
2023-04-02T11:46:48.602Z,19.82
2023-04-02T11:57:45.993Z,19.52
2023-04-02T12:00:40.975Z,19.30
2023-04-02T12:03:55.588Z,20.72
2023-04-02T12:06:47.423Z,19.91
2023-04-02T12:09:50.155Z,19.93
2023-04-02T12:12:30.531Z,20.56
2023-04-02T12:15:02.183Z,21.04
2023-04-02T12:17:33.967Z,21.56
2023-04-02T12:20:08.516Z,21.64
2023-04-02T12:22:42.017Z,21.83
2023-04-02T12:25:29.486Z,22.28
2023-04-02T12:28:20.730Z,22.60
2023-04-02T12:30:47.678Z,22.89
2023-04-02T12:33:23.515Z,22.55
2023-04-02T12:35:55.162Z,22.44
2023-04-02T12:38:28.063Z,22.66
2023-04-02T12:41:02.673Z,22.50
2023-04-02T12:48:09.997Z,23.64
2023-04-02T12:50:37.094Z,23.78
2023-04-02T12:53:08.222Z,23.22
2023-04-02T12:55:34.892Z,22.96
2023-04-02T12:58:03.713Z,22.98
2023-04-02T13:00:33.118Z,22.47
2023-04-02T13:03:10.689Z,22.78
2023-04-02T13:05:56.302Z,23.37
2023-04-02T13:08:42.209Z,23.18
2023-04-02T13:15:19.814Z,23.81
2023-04-02T13:17:48.942Z,24.08
2023-04-02T13:20:35.276Z,24.49
2023-04-02T13:23:28.312Z,24.83
2023-04-02T13:26:04.532Z,25.22
2023-04-02T13:28:32.565Z,25.60
2023-04-02T13:31:06.027Z,26.75
2023-04-02T13:33:33.152Z,26.95
2023-04-02T13:36:00.407Z,26.92
2023-04-02T13:38:50.183Z,26.72
2023-04-02T13:41:22.816Z,27.75
2023-04-02T13:43:50.723Z,28.26
2023-04-02T13:46:29.238Z,27.97
2023-04-02T13:48:56.332Z,27.02
2023-04-02T13:51:26.102Z,27.16
2023-04-02T13:53:54.580Z,28.17
2023-04-02T13:56:24.713Z,28.64
2023-04-02T13:58:51.591Z,29.01
2023-04-02T14:01:21.225Z,28.34
2023-04-02T14:03:52.591Z,28.36
2023-04-02T14:06:25.712Z,29.72
2023-04-02T14:08:55.960Z,30.13
2023-04-02T14:11:25.368Z,31.02
2023-04-02T14:13:55.102Z,30.51
2023-04-02T14:16:31.428Z,30.54
2023-04-02T14:19:04.078Z,30.25
2023-04-02T14:21:34.318Z,30.13
2023-04-02T14:24:10.701Z,31.03
2023-04-02T14:26:40.442Z,28.90
2023-04-02T14:29:08.005Z,27.63
2023-04-02T14:31:35.692Z,26.30
2023-04-02T14:34:02.538Z,26.20
2023-04-02T14:36:29.142Z,27.34
2023-04-02T14:39:01.281Z,27.36
2023-04-02T14:41:41.144Z,26.04
2023-04-02T14:44:07.872Z,24.40
2023-04-02T14:46:37.613Z,22.16
2023-04-02T14:49:18.957Z,20.72
2023-04-02T14:51:51.175Z,19.97
2023-04-02T14:54:23.887Z,20.16
2023-04-02T14:56:50.931Z,19.69
2023-04-02T14:59:33.066Z,19.58
2023-04-02T15:02:18.608Z,19.38
2023-04-02T15:04:58.040Z,18.63
2023-04-02T15:07:27.921Z,17.81
2023-04-02T15:09:56.922Z,17.39
2023-04-02T15:12:24.625Z,17.09
2023-04-02T15:14:53.952Z,16.88
2023-04-02T15:17:20.596Z,16.32
2023-04-02T15:19:49.666Z,15.70
2023-04-02T15:22:28.749Z,14.95
2023-04-02T15:24:55.503Z,14.56
2023-04-02T15:27:27.117Z,14.41
2023-04-02T15:29:53.821Z,14.35
2023-04-02T15:32:25.963Z,14.13
2023-04-02T15:34:56.282Z,13.74
2023-04-02T15:37:26.277Z,13.33
2023-04-02T15:40:05.040Z,13.23
2023-04-02T15:42:33.559Z,13.09
2023-04-02T15:45:02.493Z,13.00
2023-04-02T15:47:49.332Z,12.95
2023-04-02T15:50:38.259Z,12.85
2023-04-02T15:53:16.603Z,12.86
2023-04-02T15:55:48.022Z,13.23
2023-04-02T15:58:27.511Z,13.26
2023-04-02T16:00:56.570Z,13.37
2023-04-02T16:03:25.561Z,13.46
2023-04-02T16:06:17.081Z,13.50
2023-04-02T16:08:57.030Z,14.85
2023-04-02T16:11:26.338Z,16.58
2023-04-02T16:14:00.765Z,17.23
2023-04-02T16:16:31.495Z,18.31
2023-04-02T16:19:16.757Z,18.94
2023-04-02T16:21:46.128Z,18.69
2023-04-02T16:24:15.498Z,19.28
2023-04-02T16:26:45.161Z,19.28
2023-04-02T16:29:14.217Z,19.39
2023-04-02T16:31:44.138Z,19.89
2023-04-02T16:34:15.589Z,20.27
2023-04-02T16:36:56.823Z,20.85
2023-04-02T16:39:33.293Z,21.49
2023-04-02T16:42:08.387Z,21.63
2023-04-02T16:44:35.069Z,21.51
2023-04-02T16:47:04.773Z,21.37
2023-04-02T16:49:36.224Z,21.18
2023-04-02T16:52:02.878Z,20.98
2023-04-02T16:54:38.980Z,20.59
2023-04-02T16:57:38.680Z,20.13
2023-04-02T17:00:17.973Z,19.51
2023-04-02T17:02:44.609Z,18.97
2023-04-02T17:05:31.281Z,18.20
2023-04-02T17:08:10.438Z,17.07
2023-04-02T17:11:09.408Z,16.60
2023-04-02T17:13:43.043Z,16.10
2023-04-02T17:16:22.845Z,15.49
2023-04-02T17:18:51.355Z,15.10
2023-04-02T17:21:21.755Z,14.74
2023-04-02T17:23:56.411Z,14.21
2023-04-02T17:26:30.975Z,13.91
2023-04-02T17:28:58.350Z,13.59
2023-04-02T17:31:28.004Z,13.67
2023-04-02T17:33:55.075Z,13.60
2023-04-02T17:36:39.926Z,13.28
2023-04-02T17:39:15.753Z,13.17
2023-04-02T17:41:45.520Z,13.22
2023-04-02T17:44:27.143Z,13.13
2023-04-02T17:46:57.937Z,13.10
2023-04-02T17:49:28.065Z,13.09
2023-04-02T17:52:02.215Z,12.81
2023-04-02T17:54:34.348Z,12.69
2023-04-02T17:57:08.510Z,12.61
2023-04-02T17:59:39.313Z,12.60
2023-04-02T18:02:26.670Z,12.50
2023-04-02T18:05:02.538Z,12.45
2023-04-02T18:07:40.634Z,12.37
2023-04-02T18:10:10.356Z,12.20
2023-04-02T18:12:50.595Z,12.09
2023-04-02T18:15:28.708Z,12.06
2023-04-02T18:18:07.475Z,12.15
2023-04-02T18:20:39.163Z,11.94
2023-04-02T18:23:24.943Z,11.65
2023-04-02T18:25:54.296Z,11.53
2023-04-02T18:28:21.036Z,11.41
2023-04-02T18:30:52.610Z,11.29
2023-04-02T18:33:28.610Z,11.30
2023-04-02T18:35:59.800Z,11.24
2023-04-02T18:38:31.545Z,11.24
2023-04-02T18:41:03.582Z,11.03
2023-04-02T18:43:49.981Z,10.93
2023-04-02T18:46:20.592Z,10.92
2023-04-02T18:48:53.655Z,10.94
2023-04-02T18:51:29.492Z,10.81
2023-04-02T18:54:16.757Z,10.77
2023-04-02T18:56:46.599Z,10.79
2023-04-02T18:59:28.811Z,10.82
2023-04-02T19:01:55.398Z,10.80
2023-04-02T19:04:31.833Z,10.69
2023-04-02T19:07:12.101Z,10.73
2023-04-02T19:09:40.816Z,10.67
2023-04-02T19:12:19.110Z,10.71
2023-04-02T19:14:50.137Z,10.77
2023-04-02T19:17:29.709Z,10.73
2023-04-02T19:20:08.845Z,10.71
2023-04-02T19:22:38.565Z,10.66
2023-04-02T19:25:05.142Z,10.40
2023-04-02T19:27:34.669Z,10.44
2023-04-02T19:30:08.688Z,10.50
2023-04-02T19:32:38.486Z,10.55
2023-04-02T19:35:14.383Z,10.17
2023-04-02T19:37:46.605Z,10.09
2023-04-02T19:40:17.214Z,10.06
2023-04-02T19:42:47.566Z,9.92
2023-04-02T19:45:34.354Z,9.88
2023-04-02T19:48:03.875Z,9.88
2023-04-02T19:50:30.573Z,9.81
2023-04-02T19:52:59.594Z,10.00
2023-04-02T19:55:26.506Z,10.03
2023-04-02T19:57:57.836Z,10.10
2023-04-02T20:00:31.266Z,10.15
2023-04-02T20:02:57.926Z,10.20
2023-04-02T20:05:24.560Z,10.26
2023-04-02T20:07:51.249Z,10.11
2023-04-02T20:10:18.139Z,10.17
2023-04-02T20:12:45.079Z,10.29
2023-04-02T20:15:11.897Z,10.44
2023-04-02T20:17:40.952Z,10.49
2023-04-02T20:20:10.804Z,10.56
2023-04-02T20:22:37.505Z,10.33
2023-04-02T20:25:04.287Z,10.36
2023-04-02T20:27:31.217Z,10.16
2023-04-02T20:30:00.389Z,10.21
2023-04-02T20:32:27.302Z,10.12
2023-04-02T20:34:54.601Z,10.12
2023-04-02T20:37:21.543Z,10.26
2023-04-02T20:39:48.409Z,10.24
2023-04-02T20:42:17.488Z,10.30
2023-04-02T20:44:49.287Z,10.37
2023-04-02T20:47:16.318Z,10.33
2023-04-02T20:49:45.436Z,10.27
2023-04-02T20:52:12.167Z,10.43
2023-04-02T20:54:38.803Z,10.45
2023-04-02T20:57:05.493Z,10.32
2023-04-02T20:59:34.566Z,10.34
2023-04-02T21:02:01.577Z,10.45
2023-04-02T21:04:28.479Z,10.42
2023-04-02T21:06:57.425Z,10.34
2023-04-02T21:09:24.088Z,10.33
2023-04-02T21:11:53.404Z,10.32
2023-04-02T21:14:20.242Z,10.35
2023-04-02T21:16:47.301Z,10.46
2023-04-02T21:19:13.952Z,10.45
2023-04-02T21:21:40.954Z,10.40
2023-04-02T21:24:10.668Z,10.30
2023-04-02T21:26:38.454Z,10.30
2023-04-02T21:29:07.575Z,10.26
2023-04-02T21:31:37.766Z,10.28
2023-04-02T21:34:08.486Z,10.32
2023-04-02T21:36:36.434Z,10.26
2023-04-02T21:39:06.650Z,10.24
2023-04-02T21:41:36.505Z,10.26
2023-04-02T21:44:03.994Z,10.10
2023-04-02T21:46:31.881Z,10.13
2023-04-02T21:49:01.101Z,10.17
2023-04-02T21:51:28.519Z,10.21
2023-04-02T21:53:57.576Z,10.23
2023-04-02T21:56:29.304Z,10.20
2023-04-02T21:58:58.868Z,10.21
2023-04-02T22:01:28.697Z,10.18
2023-04-02T22:03:58.403Z,10.20
2023-04-02T22:06:25.905Z,10.20
2023-04-02T22:08:54.141Z,10.07
2023-04-02T22:11:24.180Z,9.79
2023-04-02T22:13:51.143Z,9.74
2023-04-02T22:16:22.151Z,9.68
2023-04-02T22:18:49.370Z,9.68
2023-04-02T22:21:16.584Z,9.74
2023-04-02T22:23:46.074Z,9.78
2023-04-02T22:26:13.409Z,9.72
2023-04-02T22:28:42.980Z,9.56
2023-04-02T22:31:11.900Z,9.39
2023-04-02T22:33:38.645Z,9.35
2023-04-02T22:36:05.580Z,9.29
2023-04-02T22:38:32.613Z,9.23
2023-04-02T22:41:03.654Z,9.29
2023-04-02T22:43:34.833Z,9.35
2023-04-02T22:46:03.914Z,9.35
2023-04-02T22:48:30.683Z,9.41
2023-04-02T22:50:57.623Z,9.61
2023-04-02T22:53:24.389Z,9.69
2023-04-02T22:55:52.340Z,9.79
2023-04-02T22:58:19.681Z,9.81
2023-04-02T23:00:46.518Z,9.86
2023-04-02T23:03:15.354Z,9.72
2023-04-02T23:05:42.585Z,9.76
2023-04-02T23:08:09.415Z,9.69
2023-04-02T23:10:38.617Z,9.62
2023-04-02T23:13:05.602Z,9.50
2023-04-02T23:15:32.191Z,9.55
2023-04-02T23:17:58.940Z,9.29
2023-04-02T23:20:27.946Z,9.02
2023-04-02T23:22:57.555Z,9.07
2023-04-02T23:25:24.405Z,9.06
2023-04-02T23:27:51.045Z,9.20
2023-04-02T23:30:17.626Z,9.34
2023-04-02T23:32:44.309Z,9.35
2023-04-02T23:35:13.509Z,9.36
2023-04-02T23:37:42.656Z,9.49
2023-04-02T23:40:09.572Z,9.40
2023-04-02T23:42:36.381Z,9.14
2023-04-02T23:45:03.178Z,8.95
2023-04-02T23:47:29.788Z,8.97
2023-04-02T23:49:56.581Z,8.95
2023-04-02T23:52:23.643Z,8.92
2023-04-02T23:54:50.514Z,8.95
2023-04-02T23:57:17.355Z,8.97
2023-04-02T23:59:44.001Z,9.00
